Time;durP1;ratioP1;P1;durP2;ratioP2;P2;SDS_P1;SDS_P2;PMS_P1;PMS_P2;Temp;Humidity;BMP_temperature;BMP_pressure;BME280_temperature;BME280_humidity;BME280_pressure;Samples;Min_cycle;Max_cycle;Signal;HPM_P1;HPM_P2
2021/09/13 00:00:35;;;;;;;24.10;22.70;;;;;;;;;;5156666;27;20412;-83
2021/09/13 00:03:02;;;;;;;26.20;24.50;;;;;;;;;;5156654;27;20440;-83
2021/09/13 00:05:30;;;;;;;24.97;23.03;;;;;;;;;;5156084;27;20405;-83
2021/09/13 00:07:59;;;;;;;26.37;24.60;;;;;;;;;;5156826;27;20774;-83
2021/09/13 00:10:26;;;;;;;25.97;24.10;;;;;;;;;;5156691;27;20731;-83
2021/09/13 00:12:54;;;;;;;27.00;25.40;;;;;;;;;;5156837;27;20427;-83
2021/09/13 00:15:21;;;;;;;26.73;24.63;;;;;;;;;;5156671;27;20780;-83
2021/09/13 00:17:49;;;;;;;27.20;25.00;;;;;;;;;;5156658;27;20755;-83
2021/09/13 00:20:16;;;;;;;26.10;24.20;;;;;;;;;;5156430;27;20441;-83
2021/09/13 00:22:43;;;;;;;26.53;24.83;;;;;;;;;;5156295;27;20903;-83
2021/09/13 00:25:13;;;;;;;27.23;25.33;;;;;;;;;;5156397;27;20413;-83
2021/09/13 00:27:40;;;;;;;26.83;25.13;;;;;;;;;;5156209;27;20927;-82
2021/09/13 00:30:08;;;;;;;27.30;25.50;;;;;;;;;;5156160;27;20829;-83
2021/09/13 00:32:35;;;;;;;25.60;23.90;;;;;;;;;;5156154;27;20890;-83
2021/09/13 00:35:03;;;;;;;25.90;24.37;;;;;;;;;;5156419;27;20406;-83
2021/09/13 00:37:30;;;;;;;25.67;23.97;;;;;;;;;;5156070;27;20427;-83
2021/09/13 00:39:58;;;;;;;25.47;23.97;;;;;;;;;;5156163;27;20816;-83
2021/09/13 00:42:27;;;;;;;24.70;23.20;;;;;;;;;;5155973;27;20409;-83
2021/09/13 00:44:55;;;;;;;25.63;23.80;;;;;;;;;;5156157;27;20473;-83
2021/09/13 00:47:22;;;;;;;26.40;24.43;;;;;;;;;;5155881;27;20414;-83
2021/09/13 00:49:50;;;;;;;25.43;23.93;;;;;;;;;;5137247;27;20498;-83
2021/09/13 00:52:17;;;;;;;26.67;24.87;;;;;;;;;;5156142;27;20423;-83
2021/09/13 00:54:45;;;;;;;27.80;25.80;;;;;;;;;;5156081;27;20774;-83
2021/09/13 00:57:12;;;;;;;26.37;24.50;;;;;;;;;;5156009;27;20413;-83
2021/09/13 00:59:41;;;;;;;25.37;23.77;;;;;;;;;;5155959;27;20427;-83
2021/09/13 01:02:08;;;;;;;25.90;24.10;;;;;;;;;;5155945;27;20430;-83
2021/09/13 01:04:36;;;;;;;26.90;24.90;;;;;;;;;;5155836;27;20452;-83
2021/09/13 01:07:03;;;;;;;28.63;26.40;;;;;;;;;;5155679;27;20405;-83
2021/09/13 01:09:30;;;;;;;27.90;25.87;;;;;;;;;;5155535;27;20426;-83
2021/09/13 01:11:58;;;;;;;26.83;25.03;;;;;;;;;;5155479;27;20453;-83
2021/09/13 01:14:34;;;;;;;29.00;26.90;;;;;;;;;;5155425;27;20408;-83
2021/09/13 01:17:03;;;;;;;29.63;27.50;;;;;;;;;;5155276;27;20430;-83
2021/09/13 01:19:30;;;;;;;27.00;25.40;;;;;;;;;;5155575;27;20441;-82
2021/09/13 01:22:00;;;;;;;28.23;25.97;;;;;;;;;;5155613;27;20405;-83
2021/09/13 01:24:29;;;;;;;26.80;24.87;;;;;;;;;;5155127;27;21057;-83
2021/09/13 01:26:58;;;;;;;27.07;25.37;;;;;;;;;;5155803;27;20413;-83
2021/09/13 01:29:26;;;;;;;27.63;25.83;;;;;;;;;;5155586;27;20405;-82
2021/09/13 01:31:53;;;;;;;26.10;24.20;;;;;;;;;;5155151;27;20447;-83
2021/09/13 01:34:20;;;;;;;27.07;25.07;;;;;;;;;;5155208;27;20878;-82
2021/09/13 01:36:48;;;;;;;26.00;24.40;;;;;;;;;;5155540;27;20429;-83
2021/09/13 01:39:15;;;;;;;26.90;25.10;;;;;;;;;;5155545;27;20405;-83
2021/09/13 01:41:44;;;;;;;29.87;27.67;;;;;;;;;;5155047;27;20430;-83
2021/09/13 01:44:13;;;;;;;27.97;25.87;;;;;;;;;;5136687;27;20457;-83
2021/09/13 01:46:40;;;;;;;28.23;26.33;;;;;;;;;;5155136;27;20793;-83
2021/09/13 01:49:08;;;;;;;27.67;25.70;;;;;;;;;;5155135;27;20412;-83
2021/09/13 01:51:36;;;;;;;26.20;24.47;;;;;;;;;;5154960;27;20760;-83
2021/09/13 01:54:03;;;;;;;26.30;24.60;;;;;;;;;;5155336;27;20438;-83
2021/09/13 01:56:31;;;;;;;27.70;25.90;;;;;;;;;;5155329;27;20401;-83
2021/09/13 01:59:00;;;;;;;27.67;25.77;;;;;;;;;;5155278;27;20401;-83
2021/09/13 02:01:28;;;;;;;26.80;24.93;;;;;;;;;;5155233;27;20404;-83
2021/09/13 02:03:55;;;;;;;26.13;24.33;;;;;;;;;;5155296;27;20797;-83
2021/09/13 02:06:23;;;;;;;27.93;26.20;;;;;;;;;;5154924;27;20445;-83
2021/09/13 02:08:50;;;;;;;25.83;24.13;;;;;;;;;;5154933;27;20412;-83
2021/09/13 02:11:17;;;;;;;28.83;26.83;;;;;;;;;;5136994;27;20446;-83
2021/09/13 02:13:45;;;;;;;29.37;27.37;;;;;;;;;;5154997;27;20429;-83
2021/09/13 02:16:14;;;;;;;27.83;25.97;;;;;;;;;;5155156;27;20408;-83
2021/09/13 02:18:41;;;;;;;29.90;27.70;;;;;;;;;;5154882;27;20444;-83
2021/09/13 02:21:09;;;;;;;31.90;29.33;;;;;;;;;;5154984;27;20445;-83
2021/09/13 02:23:36;;;;;;;29.77;27.80;;;;;;;;;;5155013;27;20416;-83
2021/09/13 02:26:03;;;;;;;30.70;28.60;;;;;;;;;;5155126;27;20408;-83
2021/09/13 02:28:31;;;;;;;31.83;29.43;;;;;;;;;;5157171;27;20423;-83
2021/09/13 02:30:58;;;;;;;31.27;29.00;;;;;;;;;;5158280;27;20486;-83
2021/09/13 02:33:27;;;;;;;30.83;28.70;;;;;;;;;;5158767;27;20438;-83
2021/09/13 02:35:54;;;;;;;30.33;28.33;;;;;;;;;;5158637;27;20426;-83
2021/09/13 02:38:22;;;;;;;30.77;28.57;;;;;;;;;;5158795;27;20413;-83
2021/09/13 02:40:49;;;;;;;29.90;27.80;;;;;;;;;;5158621;27;20405;-83
2021/09/13 02:43:17;;;;;;;31.93;29.47;;;;;;;;;;5158476;27;20413;-83
2021/09/13 02:45:44;;;;;;;30.20;27.73;;;;;;;;;;5158119;27;20543;-83
2021/09/13 02:48:12;;;;;;;30.73;28.33;;;;;;;;;;5158571;27;20405;-83
2021/09/13 02:50:41;;;;;;;32.30;30.00;;;;;;;;;;5157998;27;20402;-83
2021/09/13 02:53:08;;;;;;;31.13;28.80;;;;;;;;;;5139887;27;20416;-83
2021/09/13 02:55:36;;;;;;;30.90;28.70;;;;;;;;;;5158413;27;20436;-83
2021/09/13 02:58:03;;;;;;;28.97;26.87;;;;;;;;;;5158062;27;20405;-83
2021/09/13 03:00:31;;;;;;;33.23;30.50;;;;;;;;;;5158164;27;20430;-83
2021/09/13 03:02:58;;;;;;;30.00;27.97;;;;;;;;;;5158018;27;20405;-83
2021/09/13 03:05:26;;;;;;;30.30;27.63;;;;;;;;;;5157690;27;21009;-83
2021/09/13 03:07:55;;;;;;;30.13;28.03;;;;;;;;;;5157901;27;20903;-83
2021/09/13 03:10:22;;;;;;;30.40;27.87;;;;;;;;;;5158009;27;20441;-83
2021/09/13 03:12:49;;;;;;;29.87;27.80;;;;;;;;;;5157987;27;20535;-83
2021/09/13 03:15:17;;;;;;;28.73;26.83;;;;;;;;;;5157740;27;20405;-83
2021/09/13 03:17:45;;;;;;;31.97;29.60;;;;;;;;;;5157919;27;20416;-83
2021/09/13 03:20:13;;;;;;;30.13;28.03;;;;;;;;;;5157725;27;20520;-83
2021/09/13 03:22:40;;;;;;;26.80;25.00;;;;;;;;;;5157848;27;20406;-83
2021/09/13 03:25:11;;;;;;;27.17;25.37;;;;;;;;;;5157413;27;20459;-83
2021/09/13 03:27:38;;;;;;;31.30;28.90;;;;;;;;;;5157334;27;20408;-83
2021/09/13 03:30:06;;;;;;;28.40;26.23;;;;;;;;;;5157177;27;20973;-83
2021/09/13 03:32:34;;;;;;;29.93;27.67;;;;;;;;;;5157543;27;20495;-83
2021/09/13 03:35:01;;;;;;;30.77;28.17;;;;;;;;;;5157318;27;20450;-83
2021/09/13 03:37:28;;;;;;;28.27;26.37;;;;;;;;;;5157568;27;20454;-83
2021/09/13 03:39:56;;;;;;;28.00;26.10;;;;;;;;;;5157402;27;20409;-83
2021/09/13 03:42:24;;;;;;;29.27;27.27;;;;;;;;;;5157867;27;20827;-83
2021/09/13 03:44:52;;;;;;;27.20;25.50;;;;;;;;;;5138522;27;21050;-83
2021/09/13 03:47:19;;;;;;;28.57;26.43;;;;;;;;;;5157286;27;20417;-83
2021/09/13 03:49:47;;;;;;;29.27;27.17;;;;;;;;;;5157166;27;20408;-83
2021/09/13 03:52:14;;;;;;;29.73;27.73;;;;;;;;;;5157041;27;20429;-82
2021/09/13 03:54:41;;;;;;;32.53;29.63;;;;;;;;;;5157137;27;20521;-83
2021/09/13 03:57:09;;;;;;;31.60;29.10;;;;;;;;;;5157112;27;20428;-83
2021/09/13 03:59:37;;;;;;;34.60;31.70;;;;;;;;;;5156708;27;20409;-83
2021/09/13 04:02:05;;;;;;;44.40;34.57;;;;;;;;;;5157031;27;20404;-83
2021/09/13 04:04:33;;;;;;;37.73;34.50;;;;;;;;;;5156962;27;20554;-83
2021/09/13 04:07:02;;;;;;;59.97;39.37;;;;;;;;;;5157015;27;20466;-83
2021/09/13 04:09:51;;;;;;;65.70;38.07;;;;;;;;;;5156530;27;20400;-83
2021/09/13 04:12:18;;;;;;;52.63;39.67;;;;;;;;;;5156794;27;20430;-83
2021/09/13 04:14:47;;;;;;;45.87;40.77;;;;;;;;;;5156932;27;20431;-83
2021/09/13 04:17:14;;;;;;;42.40;38.20;;;;;;;;;;5156819;27;20431;-83
2021/09/13 04:19:42;;;;;;;45.43;41.10;;;;;;;;;;5156536;27;20466;-83
2021/09/13 04:22:10;;;;;;;75.93;43.03;;;;;;;;;;5156488;27;20493;-83
2021/09/13 04:24:37;;;;;;;81.77;45.83;;;;;;;;;;5156336;27;20894;-83
2021/09/13 04:27:04;;;;;;;47.83;42.07;;;;;;;;;;5156265;27;20408;-83
2021/09/13 04:29:32;;;;;;;47.70;43.20;;;;;;;;;;5138065;27;20775;-83
2021/09/13 04:32:01;;;;;;;145.53;46.97;;;;;;;;;;5156092;27;20455;-83
2021/09/13 04:34:28;;;;;;;72.97;45.83;;;;;;;;;;5156373;27;20445;-83
2021/09/13 04:36:56;;;;;;;45.97;41.33;;;;;;;;;;5156272;27;20936;-83
2021/09/13 04:39:23;;;;;;;55.17;44.70;;;;;;;;;;5156321;27;20408;-83
2021/09/13 04:41:50;;;;;;;65.20;46.23;;;;;;;;;;5156125;27;20427;-83
2021/09/13 04:44:18;;;;;;;108.73;44.30;;;;;;;;;;5156619;27;20516;-83
2021/09/13 04:46:46;;;;;;;87.97;45.13;;;;;;;;;;5155780;27;20778;-83
2021/09/13 04:49:15;;;;;;;126.20;50.77;;;;;;;;;;5155827;27;20441;-83
2021/09/13 04:51:42;;;;;;;48.33;42.57;;;;;;;;;;5155648;27;20442;-83
2021/09/13 04:54:09;;;;;;;106.53;49.63;;;;;;;;;;5155948;27;20889;-83
2021/09/13 04:56:37;;;;;;;89.87;49.67;;;;;;;;;;5155853;27;20453;-83
2021/09/13 04:59:05;;;;;;;70.70;47.33;;;;;;;;;;5155704;27;20441;-83
2021/09/13 05:01:32;;;;;;;55.50;44.00;;;;;;;;;;5155636;27;20757;-84
2021/09/13 05:03:59;;;;;;;94.27;46.67;;;;;;;;;;5155960;27;20435;-83
2021/09/13 05:06:28;;;;;;;70.50;45.43;;;;;;;;;;5155562;27;20629;-84
2021/09/13 05:08:56;;;;;;;47.20;42.50;;;;;;;;;;5155611;27;20407;-83
2021/09/13 05:11:23;;;;;;;56.47;45.40;;;;;;;;;;5155755;27;20430;-83
2021/09/13 05:13:53;;;;;;;70.33;44.57;;;;;;;;;;5155820;27;20438;-83
2021/09/13 05:16:20;;;;;;;133.33;51.87;;;;;;;;;;5155924;27;20441;-83
2021/09/13 05:18:48;;;;;;;59.00;45.83;;;;;;;;;;5155321;27;20458;-83
2021/09/13 05:21:15;;;;;;;106.53;45.63;;;;;;;;;;5155605;27;20434;-83
2021/09/13 05:23:44;;;;;;;98.07;49.87;;;;;;;;;;5155391;27;20405;-83
2021/09/13 05:26:12;;;;;;;51.33;46.07;;;;;;;;;;5155653;27;20470;-83
2021/09/13 05:28:39;;;;;;;115.73;51.97;;;;;;;;;;5155278;27;20413;-83
2021/09/13 05:31:06;;;;;;;69.67;47.73;;;;;;;;;;5155290;27;20483;-83
2021/09/13 05:33:34;;;;;;;51.37;45.90;;;;;;;;;;5155194;27;20416;-80
2021/09/13 05:36:01;;;;;;;88.60;48.20;;;;;;;;;;5155087;27;20409;-79
2021/09/13 05:38:28;;;;;;;59.03;45.93;;;;;;;;;;5155042;27;20902;-80
2021/09/13 05:40:57;;;;;;;50.47;45.50;;;;;;;;;;5136328;27;20915;-84
2021/09/13 05:43:25;;;;;;;56.33;46.40;;;;;;;;;;5155527;27;20405;-83
2021/09/13 05:45:54;;;;;;;53.37;47.70;;;;;;;;;;5155315;27;20457;-83
2021/09/13 05:48:23;;;;;;;51.90;46.80;;;;;;;;;;5154948;27;20898;-80
2021/09/13 05:50:51;;;;;;;52.30;46.87;;;;;;;;;;5154976;27;20913;-79
2021/09/13 05:53:18;;;;;;;50.10;45.40;;;;;;;;;;5155289;27;20434;-80
2021/09/13 05:55:45;;;;;;;51.40;46.40;;;;;;;;;;5154967;27;20445;-79
2021/09/13 05:58:14;;;;;;;51.43;46.57;;;;;;;;;;5154910;27;20407;-79
2021/09/13 06:00:42;;;;;;;53.50;48.30;;;;;;;;;;5154978;27;20478;-79
2021/09/13 06:03:09;;;;;;;50.83;45.97;;;;;;;;;;5156409;27;20434;-79
2021/09/13 06:05:37;;;;;;;50.00;45.50;;;;;;;;;;5158806;27;20550;-79
2021/09/13 06:08:04;;;;;;;48.50;43.93;;;;;;;;;;5158941;27;20906;-80
2021/09/13 06:10:32;;;;;;;50.60;45.70;;;;;;;;;;5158840;27;20901;-80
2021/09/13 06:12:59;;;;;;;50.70;45.93;;;;;;;;;;5159131;27;20428;-80
2021/09/13 06:15:28;;;;;;;49.83;45.23;;;;;;;;;;5158710;27;20417;-80
2021/09/13 06:17:55;;;;;;;54.20;49.13;;;;;;;;;;5158601;27;20921;-80
2021/09/13 06:20:23;;;;;;;47.03;42.93;;;;;;;;;;5158753;27;20439;-80
2021/09/13 06:22:51;;;;;;;51.53;46.43;;;;;;;;;;5158715;27;20413;-79
2021/09/13 06:25:18;;;;;;;49.93;45.30;;;;;;;;;;5157754;27;20469;-84
2021/09/13 06:27:46;;;;;;;48.13;43.67;;;;;;;;;;5158447;27;20417;-82
2021/09/13 06:30:14;;;;;;;45.80;41.33;;;;;;;;;;5140588;27;20452;-85
2021/09/13 06:32:43;;;;;;;45.37;41.17;;;;;;;;;;5158384;27;20434;-80
2021/09/13 06:35:11;;;;;;;43.87;39.73;;;;;;;;;;5158321;27;20413;-79
2021/09/13 06:37:38;;;;;;;43.90;40.03;;;;;;;;;;5158196;27;20431;-81
2021/09/13 06:40:07;;;;;;;46.93;42.50;;;;;;;;;;5158685;27;20455;-82
2021/09/13 06:42:34;;;;;;;49.03;44.23;;;;;;;;;;5158564;27;20409;-79
2021/09/13 06:45:08;;;;;;;45.87;41.87;;;;;;;;;;5158428;27;20393;-80
2021/09/13 06:47:44;;;;;;;42.97;38.97;;;;;;;;;;5158238;27;20408;-83
2021/09/13 06:50:16;;;;;;;45.13;40.60;;;;;;;;;;5158574;27;20422;-84
2021/09/13 06:52:43;;;;;;;41.17;37.40;;;;;;;;;;5158821;27;20474;-84
2021/09/13 06:55:11;;;;;;;43.67;39.33;;;;;;;;;;5158796;27;20405;-85
2021/09/13 06:57:39;;;;;;;41.63;37.37;;;;;;;;;;5158560;27;20401;-84
2021/09/13 07:00:08;;;;;;;38.90;35.27;;;;;;;;;;5158085;27;20450;-85
2021/09/13 07:02:35;;;;;;;39.70;34.90;;;;;;;;;;5158538;27;20425;-86
2021/09/13 07:05:02;;;;;;;38.23;34.83;;;;;;;;;;5158292;27;20416;-86
2021/09/13 07:07:31;;;;;;;40.50;36.47;;;;;;;;;;5158656;27;20516;-82
2021/09/13 07:09:59;;;;;;;38.33;34.60;;;;;;;;;;5157311;27;20896;-85
2021/09/13 07:12:26;;;;;;;39.37;35.37;;;;;;;;;;5158254;27;20438;-86
2021/09/13 07:14:54;;;;;;;40.67;36.80;;;;;;;;;;5158057;27;20406;-79
2021/09/13 07:17:21;;;;;;;39.43;35.90;;;;;;;;;;5158283;27;20445;-85
2021/09/13 07:19:51;;;;;;;38.70;34.87;;;;;;;;;;5158036;27;20445;-86
2021/09/13 07:22:18;;;;;;;36.40;33.03;;;;;;;;;;5158277;27;20407;-85
2021/09/13 07:24:47;;;;;;;37.80;34.60;;;;;;;;;;5158377;27;20431;-87
2021/09/13 07:27:15;;;;;;;39.83;35.47;;;;;;;;;;5158163;27;20510;-87
2021/09/13 07:29:42;;;;;;;37.87;34.10;;;;;;;;;;5157797;27;20413;-85
2021/09/13 07:32:10;;;;;;;39.30;34.90;;;;;;;;;;5157950;27;20915;-85
2021/09/13 07:34:37;;;;;;;37.17;33.43;;;;;;;;;;5157913;27;20412;-85
2021/09/13 07:37:05;;;;;;;33.77;30.47;;;;;;;;;;5157869;27;20427;-85
2021/09/13 07:39:32;;;;;;;33.13;30.00;;;;;;;;;;5157481;27;20434;-85
2021/09/13 07:42:01;;;;;;;33.43;30.30;;;;;;;;;;5157894;27;20431;-85
2021/09/13 07:44:29;;;;;;;33.63;30.73;;;;;;;;;;5157404;27;20436;-84
2021/09/13 07:46:56;;;;;;;33.37;30.17;;;;;;;;;;5157261;27;20459;-86
2021/09/13 07:49:23;;;;;;;33.87;30.57;;;;;;;;;;5157652;27;20410;-85
2021/09/13 07:51:52;;;;;;;34.27;30.83;;;;;;;;;;5157500;27;20412;-86
2021/09/13 07:54:20;;;;;;;29.10;26.47;;;;;;;;;;5157527;27;20444;-84
2021/09/13 07:56:47;;;;;;;31.93;29.10;;;;;;;;;;5156089;27;20412;-84
2021/09/13 07:59:16;;;;;;;30.73;27.93;;;;;;;;;;5157205;27;20427;-85
2021/09/13 08:01:43;;;;;;;28.70;26.50;;;;;;;;;;5156835;27;20430;-85
2021/09/13 08:04:11;;;;;;;28.97;26.43;;;;;;;;;;5156911;27;20453;-84
2021/09/13 08:06:39;;;;;;;29.97;27.27;;;;;;;;;;5157042;27;20475;-86
2021/09/13 08:09:07;;;;;;;30.00;27.40;;;;;;;;;;5156935;27;20768;-85
2021/09/13 08:11:35;;;;;;;32.63;29.67;;;;;;;;;;5139246;27;20414;-85
2021/09/13 08:14:02;;;;;;;31.37;28.77;;;;;;;;;;5156801;27;20431;-85
2021/09/13 08:16:31;;;;;;;32.07;29.37;;;;;;;;;;5156670;27;20439;-85
2021/09/13 08:19:00;;;;;;;31.47;28.80;;;;;;;;;;5156401;27;20446;-84
2021/09/13 08:21:28;;;;;;;31.60;28.93;;;;;;;;;;5156451;27;20895;-84
2021/09/13 08:23:55;;;;;;;27.87;25.80;;;;;;;;;;5156748;27;20903;-84
2021/09/13 08:26:23;;;;;;;26.40;24.30;;;;;;;;;;5155593;27;20479;-84
2021/09/13 08:28:50;;;;;;;27.90;25.70;;;;;;;;;;5156662;27;20437;-85
2021/09/13 08:31:17;;;;;;;27.00;25.20;;;;;;;;;;5156215;27;20988;-85
2021/09/13 08:33:46;;;;;;;26.47;24.20;;;;;;;;;;5157404;27;20452;-85
2021/09/13 08:36:14;;;;;;;26.17;24.37;;;;;;;;;;5156319;27;20487;-84
2021/09/13 08:38:41;;;;;;;25.47;23.67;;;;;;;;;;5156513;27;20446;-85
2021/09/13 08:41:08;;;;;;;25.00;23.30;;;;;;;;;;5138180;27;20899;-85
2021/09/13 08:43:36;;;;;;;25.10;23.37;;;;;;;;;;5156166;27;20426;-82
2021/09/13 08:46:06;;;;;;;24.63;23.13;;;;;;;;;;5156538;27;20470;-81
2021/09/13 08:48:37;;;;;;;23.80;22.20;;;;;;;;;;5156002;27;20453;-81
2021/09/13 08:51:29;;;;;;;25.50;23.80;;;;;;;;;;5155484;27;20557;-82
2021/09/13 08:53:58;;;;;;;25.67;23.77;;;;;;;;;;5156046;27;20436;-82
2021/09/13 08:56:29;;;;;;;25.57;23.70;;;;;;;;;;5155646;27;20412;-82
2021/09/13 08:58:56;;;;;;;25.57;23.67;;;;;;;;;;5155478;27;20439;-81
2021/09/13 09:01:25;;;;;;;24.00;22.40;;;;;;;;;;5155849;27;20492;-81
2021/09/13 09:03:53;;;;;;;24.40;22.83;;;;;;;;;;5155617;27;20435;-81
2021/09/13 09:06:44;;;;;;;24.00;22.50;;;;;;;;;;5155770;27;20479;-81
2021/09/13 09:09:12;;;;;;;24.20;22.50;;;;;;;;;;5155667;27;20443;-81
2021/09/13 09:11:57;;;;;;;24.90;23.30;;;;;;;;;;5155726;27;20800;-81
2021/09/13 09:14:29;;;;;;;23.47;22.03;;;;;;;;;;5155456;27;20464;-81
2021/09/13 09:16:57;;;;;;;24.27;22.53;;;;;;;;;;5155616;27;20523;-81
2021/09/13 09:19:24;;;;;;;25.03;23.17;;;;;;;;;;5155213;27;20471;-82
2021/09/13 09:21:53;;;;;;;24.97;23.23;;;;;;;;;;5155270;27;20440;-81
2021/09/13 09:24:21;;;;;;;25.20;23.40;;;;;;;;;;5155178;27;20411;-81
2021/09/13 09:27:01;;;;;;;25.47;23.27;;;;;;;;;;5155133;27;20473;-81
2021/09/13 09:29:29;;;;;;;23.80;22.10;;;;;;;;;;5155423;27;20440;-81
2021/09/13 09:31:59;;;;;;;21.73;20.33;;;;;;;;;;5155106;27;20453;-81
2021/09/13 09:34:28;;;;;;;21.67;20.47;;;;;;;;;;5155179;27;21001;-82
2021/09/13 09:37:25;;;;;;;21.77;20.47;;;;;;;;;;5156660;27;20446;-82
2021/09/13 09:39:55;;;;;;;21.47;20.17;;;;;;;;;;5159662;27;20505;-82
2021/09/13 09:42:30;;;;;;;22.13;20.83;;;;;;;;;;5160165;27;20531;-82
2021/09/13 09:44:57;;;;;;;24.00;22.40;;;;;;;;;;5159604;27;20485;-81
2021/09/13 09:47:26;;;;;;;22.23;20.83;;;;;;;;;;5159259;27;21011;-81
2021/09/13 09:49:55;;;;;;;22.47;21.07;;;;;;;;;;5159306;27;20450;-82
2021/09/13 09:52:30;;;;;;;23.40;21.57;;;;;;;;;;5159299;27;20452;-81
2021/09/13 09:55:16;;;;;;;22.07;20.57;;;;;;;;;;5159197;27;20458;-82
2021/09/13 09:57:44;;;;;;;21.40;20.10;;;;;;;;;;5159139;27;20947;-82
2021/09/13 10:00:22;;;;;;;22.10;20.60;;;;;;;;;;5159020;27;20433;-82
2021/09/13 10:02:49;;;;;;;21.77;20.50;;;;;;;;;;5159131;27;20459;-82
2021/09/13 10:05:17;;;;;;;21.80;20.50;;;;;;;;;;5159249;27;20772;-82
2021/09/13 10:07:47;;;;;;;22.43;20.83;;;;;;;;;;5159124;27;20479;-82
2021/09/13 10:10:14;;;;;;;21.33;20.00;;;;;;;;;;5159124;27;20784;-82
2021/09/13 10:12:42;;;;;;;21.13;19.93;;;;;;;;;;5159190;27;20418;-82
2021/09/13 10:15:10;;;;;;;20.27;19.07;;;;;;;;;;5158749;27;20444;-82
2021/09/13 10:17:37;;;;;;;20.00;18.80;;;;;;;;;;5159052;27;20765;-92
2021/09/13 10:20:06;;;;;;;21.30;20.10;;;;;;;;;;5158896;27;20436;-83
2021/09/13 10:22:35;;;;;;;21.03;19.93;;;;;;;;;;5158963;27;20455;-83
2021/09/13 10:25:05;;;;;;;20.77;19.47;;;;;;;;;;5158908;27;20495;-83
2021/09/13 10:27:35;;;;;;;21.83;20.43;;;;;;;;;;5158300;27;20486;-82
2021/09/13 10:30:17;;;;;;;21.80;20.20;;;;;;;;;;5158419;27;20445;-83
2021/09/13 10:32:45;;;;;;;21.67;20.27;;;;;;;;;;5158768;27;20756;-82
2021/09/13 10:35:13;;;;;;;21.27;20.07;;;;;;;;;;5158688;27;20431;-83
2021/09/13 10:37:42;;;;;;;21.83;19.83;;;;;;;;;;5158509;27;20440;-83
2021/09/13 10:40:12;;;;;;;21.70;20.23;;;;;;;;;;5158293;27;20408;-83
2021/09/13 10:42:41;;;;;;;20.97;19.77;;;;;;;;;;5158660;27;20410;-83
2021/09/13 10:45:32;;;;;;;20.83;19.53;;;;;;;;;;5158338;27;20621;-83
2021/09/13 10:48:03;;;;;;;20.97;19.80;;;;;;;;;;5137499;27;20493;-83
2021/09/13 10:50:35;;;;;;;19.83;18.83;;;;;;;;;;5157953;27;20432;-83
2021/09/13 10:53:04;;;;;;;20.70;19.40;;;;;;;;;;5158122;27;20415;-83
2021/09/13 10:55:38;;;;;;;20.53;19.30;;;;;;;;;;5158405;27;20442;-83
2021/09/13 10:58:09;;;;;;;21.07;19.40;;;;;;;;;;5158300;27;20403;-83
2021/09/13 11:00:55;;;;;;;20.07;18.97;;;;;;;;;;5158169;27;20486;-83
2021/09/13 11:03:50;;;;;;;21.00;19.80;;;;;;;;;;5158355;27;20467;-83
2021/09/13 11:06:36;;;;;;;21.63;20.20;;;;;;;;;;5094163;28;20418;-82
2021/09/13 11:09:05;;;;;;;22.50;21.20;;;;;;;;;;5093923;28;20526;-83
2021/09/13 11:11:34;;;;;;;20.67;19.37;;;;;;;;;;5094034;28;20442;-82
2021/09/13 11:14:03;;;;;;;19.53;18.50;;;;;;;;;;5094103;28;20923;-83
2021/09/13 11:16:31;;;;;;;20.53;19.20;;;;;;;;;;5094142;28;20451;-83
2021/09/13 11:18:58;;;;;;;21.53;20.37;;;;;;;;;;5093852;28;20567;-83
2021/09/13 11:21:27;;;;;;;20.50;19.30;;;;;;;;;;5093721;28;20442;-82
2021/09/13 11:23:56;;;;;;;20.20;19.20;;;;;;;;;;5094044;28;20435;-82
2021/09/13 11:26:29;;;;;;;21.07;19.70;;;;;;;;;;5093837;28;20439;-82
2021/09/13 11:28:59;;;;;;;20.67;19.33;;;;;;;;;;5093699;28;20456;-83
2021/09/13 11:31:31;;;;;;;20.70;19.60;;;;;;;;;;5093626;28;20479;-83
2021/09/13 11:33:59;;;;;;;20.00;18.90;;;;;;;;;;5093603;28;20537;-82
2021/09/13 11:36:27;;;;;;;19.50;18.40;;;;;;;;;;5077108;28;20426;-82
2021/09/13 11:38:59;;;;;;;19.20;18.10;;;;;;;;;;5076502;28;20775;-83
2021/09/13 11:41:26;;;;;;;19.60;18.50;;;;;;;;;;5109314;27;20940;-82
2021/09/13 11:44:03;;;;;;;19.47;18.47;;;;;;;;;;5157462;27;20432;-83
2021/09/13 11:46:31;;;;;;;20.13;19.13;;;;;;;;;;5157083;27;20590;-83
2021/09/13 11:49:17;;;;;;;19.43;18.43;;;;;;;;;;5157568;27;20801;-83
2021/09/13 11:52:06;;;;;;;19.07;17.97;;;;;;;;;;5157018;27;20433;-83
2021/09/13 11:54:33;;;;;;;18.60;17.70;;;;;;;;;;5157200;27;20900;-83
2021/09/13 11:57:01;;;;;;;18.97;17.83;;;;;;;;;;5157137;27;20441;-83
2021/09/13 11:59:29;;;;;;;18.90;17.80;;;;;;;;;;5157013;27;20415;-83
2021/09/13 12:02:00;;;;;;;18.83;17.93;;;;;;;;;;5155907;27;20453;-83
2021/09/13 12:04:28;;;;;;;19.23;18.20;;;;;;;;;;5157076;27;20746;-82
2021/09/13 12:07:05;;;;;;;18.93;17.97;;;;;;;;;;5157172;27;20538;-83
2021/09/13 12:09:33;;;;;;;18.90;17.90;;;;;;;;;;5156655;27;20974;-83
2021/09/13 12:12:01;;;;;;;18.13;17.13;;;;;;;;;;5156902;27;20398;-82
2021/09/13 12:14:30;;;;;;;18.53;17.50;;;;;;;;;;5156651;27;20765;-82
2021/09/13 12:17:08;;;;;;;19.53;18.40;;;;;;;;;;5157011;27;20476;-83
2021/09/13 12:19:36;;;;;;;18.60;17.70;;;;;;;;;;5156529;27;20487;-83
2021/09/13 12:22:04;;;;;;;18.80;17.80;;;;;;;;;;5156564;27;20408;-83
2021/09/13 12:24:32;;;;;;;20.57;19.40;;;;;;;;;;5156745;27;20565;-82
2021/09/13 12:27:13;;;;;;;19.20;18.30;;;;;;;;;;5138018;27;20444;-82
2021/09/13 12:29:53;;;;;;;19.37;18.47;;;;;;;;;;5156510;27;20757;-83
2021/09/13 12:32:21;;;;;;;18.97;18.00;;;;;;;;;;5135466;27;20423;-83
2021/09/13 12:34:55;;;;;;;18.83;17.83;;;;;;;;;;5135804;27;20497;-82
2021/09/13 12:37:29;;;;;;;19.33;18.43;;;;;;;;;;5135707;27;20430;-82
2021/09/13 12:40:04;;;;;;;19.33;18.33;;;;;;;;;;5135148;27;20524;-82
2021/09/13 12:42:31;;;;;;;20.40;19.20;;;;;;;;;;5135330;27;20408;-82
2021/09/13 12:45:01;;;;;;;19.00;18.00;;;;;;;;;;5135211;27;20409;-82
2021/09/13 12:47:28;;;;;;;19.10;18.10;;;;;;;;;;5135210;27;21021;-82
2021/09/13 12:49:56;;;;;;;19.73;18.63;;;;;;;;;;5135313;27;20779;-82
2021/09/13 12:52:24;;;;;;;19.67;18.67;;;;;;;;;;5135311;27;20417;-82
2021/09/13 12:54:52;;;;;;;19.77;18.77;;;;;;;;;;5135018;27;20796;-83
2021/09/13 12:57:35;;;;;;;19.43;18.37;;;;;;;;;;5135343;27;20470;-82
2021/09/13 13:00:11;;;;;;;19.10;18.10;;;;;;;;;;5134941;27;20433;-82
2021/09/13 13:02:38;;;;;;;19.57;18.47;;;;;;;;;;5135256;27;20419;-82
2021/09/13 13:05:07;;;;;;;20.00;18.90;;;;;;;;;;5135219;27;20438;-82
2021/09/13 13:07:35;;;;;;;20.00;18.60;;;;;;;;;;5134836;27;20459;-82
2021/09/13 13:10:03;;;;;;;18.87;17.97;;;;;;;;;;5134688;27;20446;-82
2021/09/13 13:12:30;;;;;;;19.23;18.23;;;;;;;;;;5134433;27;20510;-82
2021/09/13 13:14:59;;;;;;;20.30;19.10;;;;;;;;;;5135059;27;20428;-82
2021/09/13 13:17:32;;;;;;;19.80;18.60;;;;;;;;;;5135013;27;20434;-83
2021/09/13 13:20:00;;;;;;;20.17;19.07;;;;;;;;;;5134687;27;20492;-83
2021/09/13 13:22:28;;;;;;;20.00;18.90;;;;;;;;;;5134971;27;20417;-83
2021/09/13 13:24:55;;;;;;;20.63;19.33;;;;;;;;;;5135016;27;20891;-82
2021/09/13 13:27:22;;;;;;;20.63;19.43;;;;;;;;;;5134892;28;20473;-82
2021/09/13 13:29:50;;;;;;;19.70;18.70;;;;;;;;;;5135350;27;20455;-82
2021/09/13 13:32:18;;;;;;;19.77;18.77;;;;;;;;;;5155410;27;20900;-82
2021/09/13 13:34:47;;;;;;;20.20;19.10;;;;;;;;;;5155209;27;20454;-82
2021/09/13 13:37:14;;;;;;;20.13;19.03;;;;;;;;;;5155652;27;20525;-82
2021/09/13 13:39:42;;;;;;;20.33;19.27;;;;;;;;;;5155172;27;20419;-82
2021/09/13 13:42:09;;;;;;;19.60;18.60;;;;;;;;;;5155511;27;20399;-83
2021/09/13 13:44:37;;;;;;;20.23;19.13;;;;;;;;;;5155440;27;20415;-82
2021/09/13 13:47:04;;;;;;;20.00;18.80;;;;;;;;;;5154435;27;20411;-82
2021/09/13 13:49:31;;;;;;;20.43;19.33;;;;;;;;;;5155045;27;20444;-82
2021/09/13 13:52:00;;;;;;;20.50;19.30;;;;;;;;;;5155255;27;20442;-82
2021/09/13 13:54:28;;;;;;;19.90;18.80;;;;;;;;;;5155151;27;20915;-83
2021/09/13 13:56:55;;;;;;;19.80;18.70;;;;;;;;;;5136839;27;20441;-82
2021/09/13 13:59:23;;;;;;;20.00;18.80;;;;;;;;;;5154997;27;20425;-82
2021/09/13 14:01:50;;;;;;;20.33;18.93;;;;;;;;;;5155832;27;20413;-83
2021/09/13 14:04:17;;;;;;;20.13;19.13;;;;;;;;;;5155614;27;20404;-82
2021/09/13 14:06:45;;;;;;;20.60;19.50;;;;;;;;;;5155488;27;20445;-82
2021/09/13 14:09:13;;;;;;;19.63;18.53;;;;;;;;;;5154843;27;20485;-82
2021/09/13 14:11:41;;;;;;;20.10;19.00;;;;;;;;;;5155206;27;20429;-82
2021/09/13 14:14:08;;;;;;;19.60;18.60;;;;;;;;;;5154743;27;20850;-82
2021/09/13 14:16:35;;;;;;;19.70;18.70;;;;;;;;;;5155198;27;20430;-82
2021/09/13 14:19:03;;;;;;;20.47;19.37;;;;;;;;;;5136363;27;20966;-86
2021/09/13 14:21:34;;;;;;;20.13;19.03;;;;;;;;;;5155530;27;20427;-86
2021/09/13 14:24:01;;;;;;;21.40;20.30;;;;;;;;;;5157674;27;20532;-85
2021/09/13 14:26:30;;;;;;;21.03;19.83;;;;;;;;;;5160175;27;20444;-85